Observation data for Brownfield on 06/15/2019      Previous  Date  Next       Current Mesonet Observations  Soil Data  Daily Summary Page  Observations in Plain Language
KBWS 150500Z 18016G21KT 26/18 A2987 RMK A01 T02550177  RH  063%=      5-min Rain = 0
KBWS 150505Z 18016KT 25/18 A2987 RMK A01 T02540177  RH  064%=      5-min Rain = 0
KBWS 150510Z 19014G19KT 25/18 A2987 RMK A01 T02520177  RH  065%=      5-min Rain = 0
KBWS 150515Z 19015KT 25/18 A2987 RMK A01 T02510177  RH  065%=      5-min Rain = 0
KBWS 150520Z 18015KT 25/18 A2987 RMK A01 T02500177  RH  066%=      5-min Rain = 0
KBWS 150525Z 18015KT 25/18 A2987 RMK A01 T02490177  RH  066%=      5-min Rain = 0
KBWS 150530Z 18015KT 25/18 A2987 RMK A01 T02480177  RH  066%=      5-min Rain = 0
KBWS 150535Z 18015KT 25/18 A2987 RMK A01 T02470177  RH  067%=      5-min Rain = 0
KBWS 150540Z 18015KT 25/18 A2987 RMK A01 T02460177  RH  067%=      5-min Rain = 0
KBWS 150545Z 18014KT 25/18 A2987 RMK A01 T02450178  RH  068%=      5-min Rain = 0
KBWS 150550Z 18014KT 24/18 A2987 RMK A01 T02440178  RH  068%=      5-min Rain = 0
KBWS 150555Z 18015KT 24/18 A2987 RMK A01 T02440178  RH  068%=      5-min Rain = 0
KBWS 150600Z 18014KT 24/18 A2987 RMK A01 T02430178  RH  069%=      5-min Rain = 0
KBWS 150605Z 18015KT 24/18 A2987 RMK A01 T02420178  RH  069%=      5-min Rain = 0
KBWS 150610Z 18013KT 24/18 A2986 RMK A01 T02410178  RH  070%=      5-min Rain = 0
KBWS 150615Z 17014KT 24/18 A2986 RMK A01 T02390178  RH  071%=      5-min Rain = 0
KBWS 150620Z 18013KT 24/18 A2986 RMK A01 T02370178  RH  071%=      5-min Rain = 0
KBWS 150625Z 18013KT 24/18 A2986 RMK A01 T02350178  RH  072%=      5-min Rain = 0
KBWS 150630Z 18014KT 24/18 A2986 RMK A01 T02350178  RH  072%=      5-min Rain = 0
KBWS 150635Z 18014KT 23/18 A2986 RMK A01 T02340178  RH  073%=      5-min Rain = 0
KBWS 150640Z 18013KT 23/18 A2986 RMK A01 T02330178  RH  073%=      5-min Rain = 0
KBWS 150645Z 18014KT 23/18 A2986 RMK A01 T02330178  RH  073%=      5-min Rain = 0
KBWS 150650Z 18013KT 23/18 A2987 RMK A01 T02320178  RH  074%=      5-min Rain = 0
KBWS 150655Z 18013G18KT 23/18 A2986 RMK A01 T02320178  RH  074%=      5-min Rain = 0
KBWS 150700Z 18013KT 23/18 A2987 RMK A01 T02310178  RH  074%=      5-min Rain = 0
KBWS 150705Z 18013KT 23/18 A2986 RMK A01 T02310178  RH  074%=      5-min Rain = 0
KBWS 150710Z 18014KT 23/18 A2986 RMK A01 T02300177  RH  074%=      5-min Rain = 0
KBWS 150715Z 18014KT 23/18 A2986 RMK A01 T02300177  RH  074%=      5-min Rain = 0
KBWS 150720Z 18013KT 23/18 A2986 RMK A01 T02290176  RH  074%=      5-min Rain = 0
KBWS 150725Z 18012KT 23/18 A2986 RMK A01 T02270176  RH  075%=      5-min Rain = 0
KBWS 150730Z 18012KT 23/18 A2986 RMK A01 T02250176  RH  075%=      5-min Rain = 0
KBWS 150735Z 18011KT 22/18 A2986 RMK A01 T02230175  RH  076%=      5-min Rain = 0
KBWS 150740Z 18012KT 22/18 A2985 RMK A01 T02220175  RH  077%=      5-min Rain = 0
KBWS 150745Z 18012KT 22/17 A2985 RMK A01 T02210174  RH  077%=      5-min Rain = 0
KBWS 150750Z 18012KT 22/17 A2985 RMK A01 T02190174  RH  077%=      5-min Rain = 0
KBWS 150755Z 18012KT 22/17 A2985 RMK A01 T02180173  RH  077%=      5-min Rain = 0
KBWS 150800Z 19012KT 22/17 A2985 RMK A01 T02180173  RH  077%=      5-min Rain = 0
KBWS 150805Z 19012KT 22/17 A2985 RMK A01 T02170172  RH  077%=      5-min Rain = 0
KBWS 150810Z 18012KT 22/17 A2985 RMK A01 T02170172  RH  077%=      5-min Rain = 0
KBWS 150815Z 19011KT 22/17 A2985 RMK A01 T02150172  RH  078%=      5-min Rain = 0
KBWS 150820Z 19011KT 22/17 A2985 RMK A01 T02150172  RH  078%=      5-min Rain = 0
KBWS 150825Z 18011KT 22/17 A2986 RMK A01 T02150172  RH  078%=      5-min Rain = 0
KBWS 150830Z 18011KT 21/17 A2986 RMK A01 T02130171  RH  079%=      5-min Rain = 0
KBWS 150835Z 19011KT 21/17 A2986 RMK A01 T02120170  RH  079%=      5-min Rain = 0
KBWS 150840Z 18011KT 21/17 A2986 RMK A01 T02130170  RH  078%=      5-min Rain = 0
KBWS 150845Z 18011KT 21/17 A2985 RMK A01 T02110170  RH  079%=      5-min Rain = 0
KBWS 150850Z 18010KT 21/17 A2985 RMK A01 T02080169  RH  080%=      5-min Rain = 0
KBWS 150855Z 18010KT 21/17 A2985 RMK A01 T02070169  RH  081%=      5-min Rain = 0
KBWS 150900Z 18010KT 21/17 A2985 RMK A01 T02050168  RH  081%=      5-min Rain = 0
KBWS 150905Z 18010KT 20/17 A2985 RMK A01 T02040168  RH  081%=      5-min Rain = 0
KBWS 150910Z 18009KT 20/17 A2985 RMK A01 T02040167  RH  081%=      5-min Rain = 0
KBWS 150915Z 19009KT 20/17 A2985 RMK A01 T02030166  RH  081%=      5-min Rain = 0
KBWS 150920Z 19009KT 20/17 A2985 RMK A01 T02030165  RH  081%=      5-min Rain = 0
KBWS 150925Z 20009KT 20/16 A2985 RMK A01 T02030164  RH  080%=      5-min Rain = 0
KBWS 150930Z 19010KT 20/16 A2985 RMK A01 T02030163  RH  079%=      5-min Rain = 0
KBWS 150935Z 19009KT 20/16 A2985 RMK A01 T02020163  RH  080%=      5-min Rain = 0
KBWS 150940Z 18011KT 20/16 A2985 RMK A01 T02010163  RH  080%=      5-min Rain = 0
KBWS 150945Z 19010KT 20/16 A2986 RMK A01 T02010162  RH  080%=      5-min Rain = 0
KBWS 150950Z 19010KT 20/16 A2985 RMK A01 T02000161  RH  080%=      5-min Rain = 0
KBWS 150955Z 19011KT 20/16 A2985 RMK A01 T01990160  RH  080%=      5-min Rain = 0
KBWS 151000Z 21009KT 20/16 A2986 RMK A01 T01980160  RH  080%=      5-min Rain = 0
KBWS 151005Z 21010KT 20/16 A2986 RMK A01 T01980158  RH  080%=      5-min Rain = 0
KBWS 151010Z 21009KT 20/16 A2985 RMK A01 T01960158  RH  080%=      5-min Rain = 0
KBWS 151015Z 21009KT 19/16 A2985 RMK A01 T01940157  RH  081%=      5-min Rain = 0
KBWS 151020Z 21009KT 19/16 A2985 RMK A01 T01940156  RH  081%=      5-min Rain = 0
KBWS 151025Z 20009KT 19/16 A2985 RMK A01 T01930155  RH  081%=      5-min Rain = 0
KBWS 151030Z 21009KT 19/15 A2984 RMK A01 T01920154  RH  080%=      5-min Rain = 0
KBWS 151035Z 21008KT 19/15 A2984 RMK A01 T01910154  RH  081%=      5-min Rain = 0
KBWS 151040Z 21008KT 19/15 A2984 RMK A01 T01900153  RH  081%=      5-min Rain = 0
KBWS 151045Z 21008KT 19/15 A2984 RMK A01 T01890153  RH  081%=      5-min Rain = 0
KBWS 151050Z 21009KT 19/15 A2984 RMK A01 T01900153  RH  081%=      5-min Rain = 0
KBWS 151055Z 22008KT 19/15 A2984 RMK A01 T01900152  RH  080%=      5-min Rain = 0
KBWS 151100Z 22009KT 19/15 A2984 RMK A01 T01900152  RH  080%=      5-min Rain = 0
KBWS 151105Z 21009KT 19/15 A2984 RMK A01 T01890151  RH  080%=      5-min Rain = 0
KBWS 151110Z 22009KT 19/15 A2984 RMK A01 T01880150  RH  080%=      5-min Rain = 0
KBWS 151115Z 22009KT 19/15 A2984 RMK A01 T01870150  RH  081%=      5-min Rain = 0
KBWS 151120Z 23007KT 19/15 A2984 RMK A01 T01850149  RH  081%=      5-min Rain = 0
KBWS 151125Z 23007KT 18/15 A2984 RMK A01 T01830149  RH  082%=      5-min Rain = 0
KBWS 151130Z 23007KT 18/15 A2984 RMK A01 T01820149  RH  083%=      5-min Rain = 0
KBWS 151135Z 23008KT 18/15 A2984 RMK A01 T01820149  RH  083%=      5-min Rain = 0
KBWS 151140Z 23008KT 18/15 A2984 RMK A01 T01800149  RH  084%=      5-min Rain = 0
KBWS 151145Z 24007KT 18/15 A2985 RMK A01 T01790148  RH  084%=      5-min Rain = 0
KBWS 151150Z 24007KT 18/15 A2985 RMK A01 T01780148  RH  084%=      5-min Rain = 0
KBWS 151155Z 24007KT 18/15 A2985 RMK A01 T01760148  RH  085%=      5-min Rain = 0
KBWS 151200Z 23007KT 18/15 A2985 RMK A01 T01760147  RH  085%=      5-min Rain = 0
KBWS 151205Z 24007KT 18/15 A2986 RMK A01 T01760147  RH  085%=      5-min Rain = 0
KBWS 151210Z 24007KT 18/15 A2986 RMK A01 T01770146  RH  084%=      5-min Rain = 0
KBWS 151215Z 24007KT 18/15 A2986 RMK A01 T01780146  RH  083%=      5-min Rain = 0
KBWS 151220Z 24007KT 18/15 A2986 RMK A01 T01800146  RH  082%=      5-min Rain = 0
KBWS 151225Z 24009KT 18/15 A2986 RMK A01 T01830147  RH  081%=      5-min Rain = 0
KBWS 151230Z 24009KT 19/15 A2986 RMK A01 T01860147  RH  080%=      5-min Rain = 0
KBWS 151235Z 25010KT 19/15 A2986 RMK A01 T01890147  RH  078%=      5-min Rain = 0
KBWS 151240Z 24011KT 19/15 A2986 RMK A01 T01930146  RH  076%=      5-min Rain = 0
KBWS 151245Z 24011KT 20/15 A2986 RMK A01 T01970146  RH  074%=      5-min Rain = 0
KBWS 151250Z 25010KT 20/15 A2986 RMK A01 T02010146  RH  072%=      5-min Rain = 0
KBWS 151255Z 24010KT 20/15 A2986 RMK A01 T02030146  RH  071%=      5-min Rain = 0
KBWS 151300Z 24011KT 21/15 A2986 RMK A01 T02050146  RH  070%=      5-min Rain = 0
KBWS 151305Z 24012KT 21/14 A2986 RMK A01 T02080144  RH  068%=      5-min Rain = 0
KBWS 151310Z 24012KT 21/14 A2986 RMK A01 T02110143  RH  067%=      5-min Rain = 0
KBWS 151315Z 25011KT 22/14 A2986 RMK A01 T02150143  RH  065%=      5-min Rain = 0
KBWS 151320Z 24013KT 22/14 A2986 RMK A01 T02180142  RH  063%=      5-min Rain = 0
KBWS 151325Z 24013KT 22/14 A2986 RMK A01 T02210142  RH  062%=      5-min Rain = 0
KBWS 151330Z 24013KT 22/14 A2986 RMK A01 T02240142  RH  061%=      5-min Rain = 0
KBWS 151335Z 24013KT 23/14 A2986 RMK A01 T02270142  RH  060%=      5-min Rain = 0
KBWS 151340Z 24015KT 23/14 A2986 RMK A01 T02300141  RH  059%=      5-min Rain = 0
KBWS 151345Z 24015KT 23/14 A2986 RMK A01 T02320140  RH  057%=      5-min Rain = 0
KBWS 151350Z 24014KT 24/14 A2986 RMK A01 T02350141  RH  057%=      5-min Rain = 0
KBWS 151355Z 24014KT 24/14 A2986 RMK A01 T02370140  RH  056%=      5-min Rain = 0
KBWS 151400Z 24014KT 24/14 A2986 RMK A01 T02400141  RH  055%=      5-min Rain = 0
KBWS 151405Z 24013KT 25/14 A2986 RMK A01 T02450140  RH  053%=      5-min Rain = 0
KBWS 151410Z 24013G18KT 25/14 A2986 RMK A01 T02490139  RH  052%=      5-min Rain = 0
KBWS 151415Z 24013KT 25/14 A2986 RMK A01 T02540139  RH  050%=      5-min Rain = 0
KBWS 151420Z 24013KT 25/14 A2986 RMK A01 T02540139  RH  050%=      5-min Rain = 0
KBWS 151425Z 24012KT 26/14 A2986 RMK A01 T02570141  RH  050%=      5-min Rain = 0
KBWS 151430Z 23013KT 26/14 A2986 RMK A01 T02590139  RH  048%=      5-min Rain = 0
KBWS 151435Z 24014KT 26/14 A2986 RMK A01 T02630139  RH  047%=      5-min Rain = 0
KBWS 151440Z 24013KT 26/14 A2986 RMK A01 T02640136  RH  046%=      5-min Rain = 0
KBWS 151445Z 24014KT 27/14 A2986 RMK A01 T02650135  RH  045%=      5-min Rain = 0
KBWS 151450Z 24013KT 27/14 A2987 RMK A01 T02700137  RH  045%=      5-min Rain = 0
KBWS 151455Z 24012KT 27/13 A2986 RMK A01 T02730132  RH  043%=      5-min Rain = 0
KBWS 151500Z 24012KT 28/13 A2987 RMK A01 T02770134  RH  042%=      5-min Rain = 0
KBWS 151505Z 24012KT 28/13 A2987 RMK A01 T02820134  RH  041%=      5-min Rain = 0
KBWS 151510Z 25012KT 29/13 A2987 RMK A01 T02850125  RH  038%=      5-min Rain = 0
KBWS 151515Z 27009G14KT 29/12 A2987 RMK A01 T02920121  RH  035%=      5-min Rain = 0
KBWS 151520Z 27009KT 30/12 A2987 RMK A01 T02960117  RH  034%=      5-min Rain = 0
KBWS 151525Z 28011KT 30/10 A2987 RMK A01 T02970096  RH  029%=      5-min Rain = 0
KBWS 151530Z 29011G16KT 30/09 A2987 RMK A01 T03000092  RH  028%=      5-min Rain = 0
KBWS 151535Z 30011KT 30/09 A2987 RMK A01 T03020089  RH  027%=      5-min Rain = 0
KBWS 151540Z 29010KT 31/08 A2987 RMK A01 T03070083  RH  025%=      5-min Rain = 0
KBWS 151545Z 30011G17KT 31/08 A2987 RMK A01 T03120075  RH  023%=      5-min Rain = 0
KBWS 151550Z 30012KT 31/06 A2987 RMK A01 T03140057  RH  020%=      5-min Rain = 0
KBWS 151555Z 30012G17KT 32/05 A2987 RMK A01 T03170049  RH  019%=      5-min Rain = 0
KBWS 151600Z 30012KT 32/04 A2987 RMK A01 T03160043  RH  018%=      5-min Rain = 0
KBWS 151605Z 31012KT 32/05 A2987 RMK A01 T03190045  RH  018%=      5-min Rain = 0
KBWS 151610Z 31011KT 32/05 A2987 RMK A01 T03190046  RH  018%=      5-min Rain = 0
KBWS 151615Z 31011KT 32/05 A2987 RMK A01 T03210050  RH  019%=      5-min Rain = 0
KBWS 151620Z 32012KT 32/05 A2987 RMK A01 T03240051  RH  018%=      5-min Rain = 0
KBWS 151625Z 31011G17KT 32/05 A2987 RMK A01 T03220051  RH  019%=      5-min Rain = 0
KBWS 151630Z 32009G14KT 32/06 A2987 RMK A01 T03240055  RH  019%=      5-min Rain = 0
KBWS 151635Z 30010KT 32/06 A2987 RMK A01 T03240056  RH  019%=      5-min Rain = 0
KBWS 151640Z 32011G16KT 33/05 A2987 RMK A01 T03290054  RH  018%=      5-min Rain = 0
KBWS 151645Z 31010G15KT 33/05 A2987 RMK A01 T03280053  RH  018%=      5-min Rain = 0
KBWS 151650Z 33006KT 33/05 A2986 RMK A01 T03280054  RH  018%=      5-min Rain = 0
KBWS 151655Z 33008KT 33/05 A2986 RMK A01 T03290049  RH  018%=      5-min Rain = 0
KBWS 151700Z 33008KT 33/04 A2986 RMK A01 T03340043  RH  016%=      5-min Rain = 0
KBWS 151705Z 33010KT 34/04 A2986 RMK A01 T03380039  RH  015%=      5-min Rain = 0
KBWS 151710Z 34007G12KT 34/04 A2986 RMK A01 T03390038  RH  015%=      5-min Rain = 0
KBWS 151715Z 33010G15KT 34/01 A2986 RMK A01 T03430014  RH  013%=      5-min Rain = 0
KBWS 151720Z 34011G16KT 34/02 A2987 RMK A01 T03430021  RH  013%=      5-min Rain = 0
KBWS 151725Z 34011KT 34/02 A2987 RMK A01 T03440020  RH  013%=      5-min Rain = 0
KBWS 151730Z 35009KT 34/02 A2987 RMK A01 T03430018  RH  013%=      5-min Rain = 0
KBWS 151735Z 34009KT 35/02 A2987 RMK A01 T03460019  RH  013%=      5-min Rain = 0
KBWS 151740Z 33011KT 35/01 A2987 RMK A01 T03450009  RH  012%=      5-min Rain = 0
KBWS 151745Z 32009G14KT 35/01 A2987 RMK A01 T03490010  RH  012%=      5-min Rain = 0
KBWS 151750Z 34009G15KT 35/M00 A2987 RMK A01 T03481001  RH  011%=      5-min Rain = 0
KBWS 151755Z 34009KT 35/00 A2987 RMK A01 T035000-0  RH  011%=      5-min Rain = 0
KBWS 151800Z 32008KT 36/01 A2987 RMK A01 T03550005  RH  011%=      5-min Rain = 0
KBWS 151805Z 33004KT 35/M01 A2987 RMK A01 T03511008  RH  010%=      5-min Rain = 0
KBWS 151810Z 34009G15KT 35/M00 A2987 RMK A01 T03511003  RH  011%=      5-min Rain = 0
KBWS 151815Z 32009KT 36/M00 A2987 RMK A01 T03561004  RH  010%=      5-min Rain = 0
KBWS 151820Z 34008G17KT 35/M01 A2987 RMK A01 T03531007  RH  010%=      5-min Rain = 0
KBWS 151825Z 02002G8KT 35/M01 A2987 RMK A01 T03511011  RH  010%=      5-min Rain = 0
KBWS 151830Z 33008G14KT 36/M01 A2987 RMK A01 T03551005  RH  010%=      5-min Rain = 0
KBWS 151835Z 32005G11KT 36/M00 A2986 RMK A01 T03571001  RH  011%=      5-min Rain = 0
KBWS 151840Z 33007G13KT 36/01 A2986 RMK A01 T03580005  RH  011%=      5-min Rain = 0
KBWS 151845Z 35005G10KT 36/00 A2986 RMK A01 T035700-0  RH  011%=      5-min Rain = 0
KBWS 151850Z 34004G9KT 36/01 A2986 RMK A01 T03570006  RH  011%=      5-min Rain = 0
KBWS 151855Z 32008G14KT 36/02 A2986 RMK A01 T03610015  RH  012%=      5-min Rain = 0
KBWS 151900Z 34010KT 36/02 A2986 RMK A01 T03590017  RH  012%=      5-min Rain = 0
KBWS 151905Z 33007G13KT 36/02 A2985 RMK A01 T03610021  RH  012%=      5-min Rain = 0
KBWS 151910Z 28008KT 37/01 A2985 RMK A01 T03690010  RH  011%=      5-min Rain = 0
KBWS 151915Z 29007G13KT 37/M00 A2985 RMK A01 T03721004  RH  009%=      5-min Rain = 0
KBWS 151920Z 33004KT 36/M01 A2985 RMK A01 T03601011  RH  010%=      5-min Rain = 0
KBWS 151925Z 23004KT 37/M01 A2985 RMK A01 T03671006  RH  010%=      5-min Rain = 0
KBWS 151930Z 23004KT 37/M01 A2985 RMK A01 T03691007  RH  009%=      5-min Rain = 0
KBWS 151935Z 34005KT 37/00 A2984 RMK A01 T036600-0  RH  010%=      5-min Rain = 0
KBWS 151940Z 30003G8KT 36/M00 A2984 RMK A01 T03631001  RH  010%=      5-min Rain = 0
KBWS 151945Z 24003G9KT 36/M00 A2984 RMK A01 T03601002  RH  010%=      5-min Rain = 0
KBWS 151950Z 26007G12KT 37/00 A2984 RMK A01 T03700004  RH  010%=      5-min Rain = 0
KBWS 151955Z 25007G13KT 37/M00 A2984 RMK A01 T03711003  RH  010%=      5-min Rain = 0
KBWS 152000Z 27005KT 37/M00 A2984 RMK A01 T03691004  RH  010%=      5-min Rain = 0
KBWS 152005Z 33002KT 37/M01 A2984 RMK A01 T03681008  RH  009%=      5-min Rain = 0
KBWS 152010Z 17003G10KT 37/M01 A2983 RMK A01 T03671008  RH  009%=      5-min Rain = 0
KBWS 152015Z 21004G12KT 37/M01 A2983 RMK A01 T03691011  RH  009%=      5-min Rain = 0
KBWS 152020Z 21003G10KT 37/M01 A2983 RMK A01 T03671006  RH  010%=      5-min Rain = 0
KBWS 152025Z 22005KT 37/M01 A2983 RMK A01 T03711005  RH  009%=      5-min Rain = 0
KBWS 152030Z 20005KT 36/M01 A2983 RMK A01 T03641009  RH  010%=      5-min Rain = 0
KBWS 152035Z 25003KT 36/M01 A2983 RMK A01 T03611010  RH  010%=      5-min Rain = 0
KBWS 152040Z 29009KT 36/M01 A2983 RMK A01 T03621006  RH  010%=      5-min Rain = 0
KBWS 152045Z 28005KT 37/M01 A2983 RMK A01 T03691006  RH  010%=      5-min Rain = 0
KBWS 152050Z 25003KT 37/M01 A2982 RMK A01 T03691007  RH  009%=      5-min Rain = 0
KBWS 152055Z 26008G13KT 38/M00 A2982 RMK A01 T03751002  RH  009%=      5-min Rain = 0
KBWS 152100Z 27009G14KT 37/M01 A2982 RMK A01 T03681010  RH  009%=      5-min Rain = 0
KBWS 152105Z 30009KT 36/M01 A2982 RMK A01 T03621010  RH  010%=      5-min Rain = 0
KBWS 152110Z 33011KT 36/M01 A2982 RMK A01 T03581013  RH  010%=      5-min Rain = 0
KBWS 152115Z 28009G14KT 36/M01 A2982 RMK A01 T03631008  RH  010%=      5-min Rain = 0
KBWS 152120Z 29005G10KT 37/M01 A2982 RMK A01 T03691008  RH  009%=      5-min Rain = 0
KBWS 152125Z 25009G16KT 37/M01 A2981 RMK A01 T03721011  RH  009%=      5-min Rain = 0
KBWS 152130Z 24007KT 36/M01 A2981 RMK A01 T03631012  RH  009%=      5-min Rain = 0
KBWS 152135Z 24006KT 36/M01 A2981 RMK A01 T03601012  RH  010%=      5-min Rain = 0
KBWS 152140Z 25007KT 36/M01 A2981 RMK A01 T03581013  RH  010%=      5-min Rain = 0
KBWS 152145Z 23005KT 36/M01 A2981 RMK A01 T03571012  RH  010%=      5-min Rain = 0
KBWS 152150Z 23004KT 36/M01 A2981 RMK A01 T03611010  RH  010%=      5-min Rain = 0
KBWS 152155Z 27003KT 36/M01 A298 RMK A01 T03641007  RH  010%=      5-min Rain = 0
KBWS 152200Z 25006KT 37/M01 A298 RMK A01 T03651008  RH  010%=      5-min Rain = 0
KBWS 152205Z 32006KT 37/M01 A298 RMK A01 T03651008  RH  010%=      5-min Rain = 0
KBWS 152210Z 30003KT 37/M01 A298 RMK A01 T03691011  RH  009%=      5-min Rain = 0
KBWS 152215Z 36004KT 37/M01 A2979 RMK A01 T03701005  RH  009%=      5-min Rain = 0
KBWS 152220Z 27009G16KT 37/M01 A2979 RMK A01 T03691006  RH  009%=      5-min Rain = 0
KBWS 152225Z 25014G19KT 37/M00 A2979 RMK A01 T03731003  RH  009%=      5-min Rain = 0
KBWS 152230Z 25012G17KT 38/00 A2979 RMK A01 T03830001  RH  009%=      5-min Rain = 0
KBWS 152235Z 24009G15KT 38/M00 A2978 RMK A01 T03821004  RH  009%=      5-min Rain = 0
KBWS 152240Z 25017G23KT 37/M00 A2978 RMK A01 T03741004  RH  009%=      5-min Rain = 0
KBWS 152245Z 24016G25KT 37/M01 A2978 RMK A01 T03731005  RH  009%=      5-min Rain = 0
KBWS 152250Z 24014G19KT 36/M01 A2978 RMK A01 T03621008  RH  010%=      5-min Rain = 0
KBWS 152255Z 24013G19KT 37/00 A2977 RMK A01 T036900-0  RH  010%=      5-min Rain = 0
KBWS 152300Z 23013G20KT 37/00 A2977 RMK A01 T03730000  RH  010%=      5-min Rain = 0
KBWS 152305Z 23014G19KT 37/00 A2977 RMK A01 T03720000  RH  010%=      5-min Rain = 0
KBWS 152310Z 23013G18KT 37/00 A2977 RMK A01 T03720001  RH  010%=      5-min Rain = 0
KBWS 152315Z 22013KT 37/M00 A2977 RMK A01 T03701002  RH  010%=      5-min Rain = 0
KBWS 152320Z 21013G18KT 37/M00 A2977 RMK A01 T03681003  RH  010%=      5-min Rain = 0
KBWS 152325Z 22012G19KT 37/M00 A2977 RMK A01 T03691002  RH  010%=      5-min Rain = 0
KBWS 152330Z 21013G19KT 37/M00 A2977 RMK A01 T03691002  RH  010%=      5-min Rain = 0
KBWS 152335Z 23009KT 37/M00 A2977 RMK A01 T03691001  RH  010%=      5-min Rain = 0
KBWS 152340Z 24010KT 37/M00 A2976 RMK A01 T03691004  RH  010%=      5-min Rain = 0
KBWS 152345Z 25011KT 37/M00 A2976 RMK A01 T03691004  RH  010%=      5-min Rain = 0
KBWS 152350Z 24011KT 37/M00 A2976 RMK A01 T03691004  RH  010%=      5-min Rain = 0
KBWS 152355Z 25012G18KT 37/M01 A2976 RMK A01 T03651010  RH  009%=      5-min Rain = 0
KBWS 160000Z 25013G18KT 37/M01 A2976 RMK A01 T03651008  RH  010%=      5-min Rain = 0
KBWS 160005Z 25014KT 37/M01 A2976 RMK A01 T03651007  RH  010%=      5-min Rain = 0
KBWS 160010Z 25009KT 37/M01 A2976 RMK A01 T03651008  RH  010%=      5-min Rain = 0
KBWS 160015Z 26009KT 37/M01 A2976 RMK A01 T03651007  RH  010%=      5-min Rain = 0
KBWS 160020Z 27010KT 36/M01 A2976 RMK A01 T03641005  RH  010%=      5-min Rain = 0
KBWS 160025Z 28009KT 36/M01 A2976 RMK A01 T03581006  RH  010%=      5-min Rain = 0
KBWS 160030Z 27010G15KT 36/M01 A2976 RMK A01 T03561007  RH  010%=      5-min Rain = 0
KBWS 160035Z 27009KT 36/M00 A2977 RMK A01 T03591004  RH  010%=      5-min Rain = 0
KBWS 160040Z 28010KT 36/M00 A2977 RMK A01 T03571002  RH  010%=      5-min Rain = 0
KBWS 160045Z 29009KT 35/M01 A2978 RMK A01 T03541005  RH  010%=      5-min Rain = 0
KBWS 160050Z 29008KT 35/M01 A2978 RMK A01 T03521005  RH  011%=      5-min Rain = 0
KBWS 160055Z 28007KT 35/00 A2978 RMK A01 T03500000  RH  011%=      5-min Rain = 0
KBWS 160100Z 29008KT 35/00 A2978 RMK A01 T03530000  RH  011%=      5-min Rain = 0
KBWS 160105Z 35010G19KT 35/03 A2979 RMK A01 T03500028  RH  014%=      5-min Rain = 0
KBWS 160110Z 03017G22KT 31/14 A298 RMK A01 T03110135  RH  035%=      5-min Rain = 0
KBWS 160115Z 03017G24KT 30/14 A298 RMK A01 T02990140  RH  038%=      5-min Rain = 0
KBWS 160120Z 03024G29KT 30/14 A298 RMK A01 T02950138  RH  039%=      5-min Rain = 0
KBWS 160125Z 04021G26KT 29/14 A2981 RMK A01 T02890138  RH  040%=      5-min Rain = 0
KBWS 160130Z 03020G26KT 28/13 A2982 RMK A01 T02820134  RH  041%=      5-min Rain = 0
KBWS 160135Z 03016G22KT 28/13 A2982 RMK A01 T02770128  RH  041%=      5-min Rain = 0
KBWS 160140Z 04013KT 27/13 A2983 RMK A01 T02740125  RH  040%=      5-min Rain = 0
KBWS 160145Z 05011KT 27/12 A2983 RMK A01 T02720121  RH  040%=      5-min Rain = 0
KBWS 160150Z 05016G21KT 27/12 A2983 RMK A01 T02710116  RH  039%=      5-min Rain = 0
KBWS 160155Z 05017G22KT 27/11 A2983 RMK A01 T02690113  RH  038%=      5-min Rain = 0
KBWS 160200Z 05013KT 27/11 A2984 RMK A01 T02660110  RH  038%=      5-min Rain = 0
KBWS 160205Z 05013G18KT 26/10 A2984 RMK A01 T02630104  RH  038%=      5-min Rain = 0
KBWS 160210Z 05011KT 26/10 A2984 RMK A01 T02590099  RH  037%=      5-min Rain = 0
KBWS 160215Z 04007KT 26/10 A2984 RMK A01 T02560095  RH  037%=      5-min Rain = 0
KBWS 160220Z 03006KT 25/09 A2983 RMK A01 T02530093  RH  037%=      5-min Rain = 0
KBWS 160225Z 04005KT 25/09 A2983 RMK A01 T02520093  RH  037%=      5-min Rain = 0
KBWS 160230Z 06003KT 25/10 A2983 RMK A01 T02490098  RH  039%=      5-min Rain = 0
KBWS 160235Z 04003KT 25/10 A2983 RMK A01 T02470096  RH  039%=      5-min Rain = 0
KBWS 160240Z 03004KT 25/09 A2983 RMK A01 T02460093  RH  038%=      5-min Rain = 0
KBWS 160245Z 05005KT 25/09 A2983 RMK A01 T02450092  RH  038%=      5-min Rain = 0
KBWS 160250Z 04004KT 25/09 A2983 RMK A01 T02460094  RH  039%=      5-min Rain = 0
KBWS 160255Z 04003KT 24/09 A2983 RMK A01 T02440088  RH  038%=      5-min Rain = 0
KBWS 160300Z 05003KT 24/09 A2983 RMK A01 T02440091  RH  038%=      5-min Rain = 0
KBWS 160305Z 05004KT 24/09 A2983 RMK A01 T02430090  RH  038%=      5-min Rain = 0
KBWS 160310Z 04005KT 24/09 A2984 RMK A01 T02430091  RH  039%=      5-min Rain = 0
KBWS 160315Z 03005KT 24/09 A2984 RMK A01 T02390087  RH  039%=      5-min Rain = 0
KBWS 160320Z 05005KT 23/10 A2984 RMK A01 T02340095  RH  042%=      5-min Rain = 0
KBWS 160325Z 06006KT 24/10 A2984 RMK A01 T02360097  RH  042%=      5-min Rain = 0
KBWS 160330Z 05005KT 24/09 A2984 RMK A01 T02360093  RH  041%=      5-min Rain = 0
KBWS 160335Z 04003KT 23/09 A2985 RMK A01 T02300090  RH  041%=      5-min Rain = 0
KBWS 160340Z 05004KT 23/09 A2985 RMK A01 T02280092  RH  043%=      5-min Rain = 0
KBWS 160345Z 05007KT 23/10 A2985 RMK A01 T02260097  RH  044%=      5-min Rain = 0
KBWS 160350Z 05010G18KT 22/09 A2986 RMK A01 T02230093  RH  044%=      5-min Rain = 0
KBWS 160355Z 05013KT 23/09 A2986 RMK A01 T02320088  RH  041%=      5-min Rain = 0
KBWS 160400Z 04012KT 23/09 A2986 RMK A01 T02310087  RH  040%=      5-min Rain = 0
KBWS 160405Z 05014KT 23/09 A2986 RMK A01 T02300090  RH  041%=      5-min Rain = 0
KBWS 160410Z 05013KT 23/09 A2986 RMK A01 T02290089  RH  042%=      5-min Rain = 0
KBWS 160415Z 04014KT 23/09 A2986 RMK A01 T02290088  RH  041%=      5-min Rain = 0
KBWS 160420Z 04014KT 23/09 A2986 RMK A01 T02270091  RH  042%=      5-min Rain = 0
KBWS 160425Z 05013KT 23/09 A2987 RMK A01 T02250094  RH  044%=      5-min Rain = 0
KBWS 160430Z 06012KT 22/10 A2987 RMK A01 T02220096  RH  045%=      5-min Rain = 0
KBWS 160435Z 06013G18KT 22/10 A2987 RMK A01 T02220096  RH  045%=      5-min Rain = 0
KBWS 160440Z 05013G18KT 22/10 A2987 RMK A01 T02230095  RH  045%=      5-min Rain = 0
KBWS 160445Z 05013KT 22/09 A2987 RMK A01 T02220094  RH  045%=      5-min Rain = 0
KBWS 160450Z 05014KT 22/09 A2988 RMK A01 T02210094  RH  045%=      5-min Rain = 0
KBWS 160455Z 06013KT 22/10 A2988 RMK A01 T02210095  RH  046%=      5-min Rain = 0

Page generated in 0.01 seconds.